Tusket, Canada
Current Conditions -  °F | °C
As of 10:00 PM on Saturday 22 Nov 2014 (Local Time) from CYQI Reporting Station
Broken Clouds Broken Clouds  
Wind Chill: 35°   Ceiling: 2500
Heat Index: 45°   Visibility: 15mi
Dew Point: 34°   Wind: 25mph
Humidity: 66%   Direction: 260°W
Pressure: 29.98"   Gusts: 36mph
Location:  43.86°N, 65.98°W
Report Text: CYQI 230200Z 26022G31KT 15SM BKN025 07/01 A2998 RMK SC5 SLP154
Loading
Personal Weather Stations






























Interactive Weather Map New forecast layout! Learn more

10-Day Weather Forecast

Advertisements
Track Severe Weather on mobile